sensor_id;sensor_type;location;lat;lon;timestamp;P1;durP1;ratioP1;P2;durP2;ratioP2
16965;SDS011;8599;47.852;12.070;2023-01-16T00:01:45;10.97;;;5.27;;
16965;SDS011;8599;47.852;12.070;2023-01-16T00:04:12;11.63;;;6.30;;
16965;SDS011;8599;47.852;12.070;2023-01-16T00:06:38;6.37;;;4.90;;
16965;SDS011;8599;47.852;12.070;2023-01-16T00:09:07;7.27;;;4.77;;
16965;SDS011;8599;47.852;12.070;2023-01-16T00:11:33;8.40;;;5.27;;
16965;SDS011;8599;47.852;12.070;2023-01-16T00:14:00;9.50;;;5.00;;
16965;SDS011;8599;47.852;12.070;2023-01-16T00:16:27;6.23;;;4.77;;
16965;SDS011;8599;47.852;12.070;2023-01-16T00:18:54;8.17;;;4.40;;
16965;SDS011;8599;47.852;12.070;2023-01-16T00:21:22;6.40;;;4.60;;
16965;SDS011;8599;47.852;12.070;2023-01-16T00:23:51;6.40;;;4.53;;
16965;SDS011;8599;47.852;12.070;2023-01-16T00:26:19;7.63;;;4.83;;
16965;SDS011;8599;47.852;12.070;2023-01-16T00:28:46;9.57;;;4.90;;
16965;SDS011;8599;47.852;12.070;2023-01-16T00:31:13;8.07;;;4.73;;
16965;SDS011;8599;47.852;12.070;2023-01-16T00:33:40;7.50;;;5.23;;
16965;SDS011;8599;47.852;12.070;2023-01-16T00:36:07;5.73;;;4.33;;
16965;SDS011;8599;47.852;12.070;2023-01-16T00:38:34;7.50;;;4.53;;
16965;SDS011;8599;47.852;12.070;2023-01-16T00:41:01;4.27;;;3.87;;
16965;SDS011;8599;47.852;12.070;2023-01-16T00:43:30;6.50;;;4.00;;
16965;SDS011;8599;47.852;12.070;2023-01-16T00:45:56;6.73;;;4.27;;
16965;SDS011;8599;47.852;12.070;2023-01-16T00:48:23;4.93;;;3.40;;
16965;SDS011;8599;47.852;12.070;2023-01-16T00:50:50;4.53;;;3.10;;
16965;SDS011;8599;47.852;12.070;2023-01-16T00:53:17;3.33;;;3.00;;
16965;SDS011;8599;47.852;12.070;2023-01-16T00:55:44;3.13;;;2.83;;
16965;SDS011;8599;47.852;12.070;2023-01-16T00:58:11;5.83;;;4.07;;
16965;SDS011;8599;47.852;12.070;2023-01-16T01:00:39;3.67;;;3.00;;
16965;SDS011;8599;47.852;12.070;2023-01-16T01:03:06;4.43;;;3.53;;
16965;SDS011;8599;47.852;12.070;2023-01-16T01:05:34;3.93;;;3.30;;
16965;SDS011;8599;47.852;12.070;2023-01-16T01:08:02;4.23;;;3.13;;
16965;SDS011;8599;47.852;12.070;2023-01-16T01:10:28;3.00;;;2.70;;
16965;SDS011;8599;47.852;12.070;2023-01-16T01:12:55;4.20;;;3.30;;
16965;SDS011;8599;47.852;12.070;2023-01-16T01:15:22;7.50;;;3.57;;
16965;SDS011;8599;47.852;12.070;2023-01-16T01:17:51;9.43;;;5.23;;
16965;SDS011;8599;47.852;12.070;2023-01-16T01:20:17;9.30;;;5.70;;
16965;SDS011;8599;47.852;12.070;2023-01-16T01:22:44;15.40;;;7.80;;
16965;SDS011;8599;47.852;12.070;2023-01-16T01:25:11;15.47;;;7.90;;
16965;SDS011;8599;47.852;12.070;2023-01-16T01:27:38;11.83;;;4.93;;
16965;SDS011;8599;47.852;12.070;2023-01-16T01:30:06;6.53;;;4.60;;
16965;SDS011;8599;47.852;12.070;2023-01-16T01:32:33;7.63;;;3.90;;
16965;SDS011;8599;47.852;12.070;2023-01-16T01:35:03;9.07;;;4.57;;
16965;SDS011;8599;47.852;12.070;2023-01-16T01:37:31;10.07;;;4.83;;
16965;SDS011;8599;47.852;12.070;2023-01-16T01:39:57;4.97;;;3.83;;
16965;SDS011;8599;47.852;12.070;2023-01-16T01:42:24;7.07;;;3.80;;
16965;SDS011;8599;47.852;12.070;2023-01-16T01:45:13;5.70;;;3.33;;
16965;SDS011;8599;47.852;12.070;2023-01-16T01:47:44;6.53;;;2.93;;
16965;SDS011;8599;47.852;12.070;2023-01-16T01:50:18;6.60;;;3.67;;
16965;SDS011;8599;47.852;12.070;2023-01-16T01:52:49;4.93;;;3.00;;
16965;SDS011;8599;47.852;12.070;2023-01-16T01:55:17;4.33;;;2.50;;
16965;SDS011;8599;47.852;12.070;2023-01-16T01:57:47;1.90;;;1.60;;
16965;SDS011;8599;47.852;12.070;2023-01-16T02:00:18;2.17;;;2.07;;
16965;SDS011;8599;47.852;12.070;2023-01-16T02:02:48;1.90;;;1.70;;
16965;SDS011;8599;47.852;12.070;2023-01-16T02:05:21;2.00;;;1.83;;
16965;SDS011;8599;47.852;12.070;2023-01-16T02:07:51;1.80;;;1.70;;
16965;SDS011;8599;47.852;12.070;2023-01-16T02:10:20;2.60;;;2.03;;
16965;SDS011;8599;47.852;12.070;2023-01-16T02:12:52;1.80;;;1.70;;
16965;SDS011;8599;47.852;12.070;2023-01-16T02:15:20;1.67;;;1.57;;
16965;SDS011;8599;47.852;12.070;2023-01-16T02:17:49;3.03;;;1.83;;
16965;SDS011;8599;47.852;12.070;2023-01-16T02:20:37;2.50;;;1.83;;
16965;SDS011;8599;47.852;12.070;2023-01-16T02:23:33;1.60;;;1.50;;
16965;SDS011;8599;47.852;12.070;2023-01-16T02:26:37;1.10;;;1.10;;
16965;SDS011;8599;47.852;12.070;2023-01-16T02:29:40;1.83;;;1.73;;
16965;SDS011;8599;47.852;12.070;2023-01-16T02:32:33;2.53;;;1.83;;
16965;SDS011;8599;47.852;12.070;2023-01-16T02:35:23;2.23;;;2.03;;
16965;SDS011;8599;47.852;12.070;2023-01-16T02:38:13;1.53;;;1.43;;
16965;SDS011;8599;47.852;12.070;2023-01-16T02:40:48;2.07;;;1.83;;
16965;SDS011;8599;47.852;12.070;2023-01-16T02:43:26;10.77;;;1.57;;
16965;SDS011;8599;47.852;12.070;2023-01-16T02:46:01;3.10;;;1.83;;
16965;SDS011;8599;47.852;12.070;2023-01-16T02:48:36;1.73;;;1.63;;
16965;SDS011;8599;47.852;12.070;2023-01-16T02:51:12;3.03;;;1.80;;
16965;SDS011;8599;47.852;12.070;2023-01-16T02:53:45;2.13;;;1.90;;
16965;SDS011;8599;47.852;12.070;2023-01-16T02:56:18;1.83;;;1.70;;
16965;SDS011;8599;47.852;12.070;2023-01-16T02:58:50;1.40;;;1.30;;
16965;SDS011;8599;47.852;12.070;2023-01-16T03:01:18;1.77;;;1.50;;
16965;SDS011;8599;47.852;12.070;2023-01-16T03:03:49;1.97;;;1.67;;
16965;SDS011;8599;47.852;12.070;2023-01-16T03:06:43;1.43;;;1.33;;
16965;SDS011;8599;47.852;12.070;2023-01-16T03:09:20;1.40;;;1.30;;
16965;SDS011;8599;47.852;12.070;2023-01-16T03:12:00;1.30;;;1.20;;
16965;SDS011;8599;47.852;12.070;2023-01-16T03:14:42;1.20;;;1.13;;
16965;SDS011;8599;47.852;12.070;2023-01-16T03:17:22;1.13;;;1.03;;
16965;SDS011;8599;47.852;12.070;2023-01-16T03:20:07;1.03;;;1.00;;
16965;SDS011;8599;47.852;12.070;2023-01-16T03:22:39;1.33;;;1.23;;
16965;SDS011;8599;47.852;12.070;2023-01-16T03:25:14;1.13;;;1.13;;
16965;SDS011;8599;47.852;12.070;2023-01-16T03:27:50;1.67;;;1.43;;
16965;SDS011;8599;47.852;12.070;2023-01-16T03:30:24;0.93;;;0.93;;
16965;SDS011;8599;47.852;12.070;2023-01-16T03:32:56;1.50;;;1.40;;
16965;SDS011;8599;47.852;12.070;2023-01-16T03:35:29;1.27;;;1.27;;
16965;SDS011;8599;47.852;12.070;2023-01-16T03:38:00;0.90;;;0.90;;
16965;SDS011;8599;47.852;12.070;2023-01-16T03:40:31;1.40;;;1.30;;
16965;SDS011;8599;47.852;12.070;2023-01-16T03:43:03;1.57;;;1.30;;
16965;SDS011;8599;47.852;12.070;2023-01-16T03:45:33;1.50;;;1.40;;
16965;SDS011;8599;47.852;12.070;2023-01-16T03:48:05;2.13;;;1.30;;
16965;SDS011;8599;47.852;12.070;2023-01-16T03:50:38;1.33;;;1.23;;
16965;SDS011;8599;47.852;12.070;2023-01-16T03:53:10;1.00;;;0.93;;
16965;SDS011;8599;47.852;12.070;2023-01-16T03:55:39;1.10;;;1.10;;
16965;SDS011;8599;47.852;12.070;2023-01-16T03:58:11;1.17;;;1.17;;
16965;SDS011;8599;47.852;12.070;2023-01-16T04:00:47;1.53;;;1.40;;
16965;SDS011;8599;47.852;12.070;2023-01-16T04:03:20;1.30;;;1.20;;
16965;SDS011;8599;47.852;12.070;2023-01-16T04:05:54;1.33;;;1.23;;
16965;SDS011;8599;47.852;12.070;2023-01-16T04:08:28;1.70;;;1.60;;
16965;SDS011;8599;47.852;12.070;2023-01-16T04:10:59;1.37;;;1.37;;
16965;SDS011;8599;47.852;12.070;2023-01-16T04:13:27;1.03;;;1.03;;
16965;SDS011;8599;47.852;12.070;2023-01-16T04:15:58;2.20;;;1.30;;
16965;SDS011;8599;47.852;12.070;2023-01-16T04:18:30;3.03;;;1.53;;
16965;SDS011;8599;47.852;12.070;2023-01-16T04:21:00;1.37;;;1.23;;
16965;SDS011;8599;47.852;12.070;2023-01-16T04:23:29;1.47;;;1.37;;
16965;SDS011;8599;47.852;12.070;2023-01-16T04:25:56;1.60;;;1.47;;
16965;SDS011;8599;47.852;12.070;2023-01-16T04:28:23;2.60;;;2.07;;
16965;SDS011;8599;47.852;12.070;2023-01-16T04:30:50;3.53;;;2.33;;
16965;SDS011;8599;47.852;12.070;2023-01-16T04:33:16;3.47;;;1.67;;
16965;SDS011;8599;47.852;12.070;2023-01-16T04:35:44;1.30;;;1.20;;
16965;SDS011;8599;47.852;12.070;2023-01-16T04:38:13;1.40;;;1.30;;
16965;SDS011;8599;47.852;12.070;2023-01-16T04:40:39;5.50;;;1.30;;
16965;SDS011;8599;47.852;12.070;2023-01-16T04:43:06;3.53;;;2.70;;
16965;SDS011;8599;47.852;12.070;2023-01-16T04:45:33;3.17;;;2.43;;
16965;SDS011;8599;47.852;12.070;2023-01-16T04:48:00;3.43;;;2.00;;
16965;SDS011;8599;47.852;12.070;2023-01-16T04:50:27;2.33;;;2.13;;
16965;SDS011;8599;47.852;12.070;2023-01-16T04:52:54;2.43;;;2.07;;
16965;SDS011;8599;47.852;12.070;2023-01-16T04:55:22;2.00;;;1.90;;
16965;SDS011;8599;47.852;12.070;2023-01-16T04:57:49;3.00;;;2.47;;
16965;SDS011;8599;47.852;12.070;2023-01-16T05:00:16;4.10;;;2.90;;
16965;SDS011;8599;47.852;12.070;2023-01-16T05:02:43;2.33;;;2.13;;
16965;SDS011;8599;47.852;12.070;2023-01-16T05:05:10;2.20;;;2.00;;
16965;SDS011;8599;47.852;12.070;2023-01-16T05:07:37;3.07;;;2.27;;
16965;SDS011;8599;47.852;12.070;2023-01-16T05:10:04;6.17;;;3.50;;
16965;SDS011;8599;47.852;12.070;2023-01-16T05:12:33;3.50;;;2.97;;
16965;SDS011;8599;47.852;12.070;2023-01-16T05:15:00;3.07;;;1.97;;
16965;SDS011;8599;47.852;12.070;2023-01-16T05:17:26;3.10;;;2.10;;
16965;SDS011;8599;47.852;12.070;2023-01-16T05:19:53;2.37;;;2.10;;
16965;SDS011;8599;47.852;12.070;2023-01-16T05:22:20;2.87;;;2.10;;
16965;SDS011;8599;47.852;12.070;2023-01-16T05:24:47;5.67;;;2.63;;
16965;SDS011;8599;47.852;12.070;2023-01-16T05:27:14;6.60;;;2.93;;
16965;SDS011;8599;47.852;12.070;2023-01-16T05:29:42;7.60;;;3.80;;
16965;SDS011;8599;47.852;12.070;2023-01-16T05:32:09;8.13;;;3.03;;
16965;SDS011;8599;47.852;12.070;2023-01-16T05:34:35;13.73;;;5.10;;
16965;SDS011;8599;47.852;12.070;2023-01-16T05:37:02;6.53;;;3.13;;
16965;SDS011;8599;47.852;12.070;2023-01-16T05:39:29;2.67;;;1.90;;
16965;SDS011;8599;47.852;12.070;2023-01-16T05:41:56;1.20;;;1.10;;
16965;SDS011;8599;47.852;12.070;2023-01-16T05:44:23;2.80;;;1.20;;
16965;SDS011;8599;47.852;12.070;2023-01-16T05:46:51;1.00;;;1.00;;
16965;SDS011;8599;47.852;12.070;2023-01-16T05:49:18;1.07;;;1.07;;
16965;SDS011;8599;47.852;12.070;2023-01-16T05:51:44;1.40;;;1.30;;
16965;SDS011;8599;47.852;12.070;2023-01-16T05:54:11;1.10;;;1.10;;
16965;SDS011;8599;47.852;12.070;2023-01-16T05:56:38;1.70;;;1.53;;
16965;SDS011;8599;47.852;12.070;2023-01-16T05:59:05;1.50;;;1.40;;
16965;SDS011;8599;47.852;12.070;2023-01-16T06:01:33;1.77;;;1.60;;
16965;SDS011;8599;47.852;12.070;2023-01-16T06:04:01;1.57;;;1.47;;
16965;SDS011;8599;47.852;12.070;2023-01-16T06:06:28;2.20;;;1.90;;
16965;SDS011;8599;47.852;12.070;2023-01-16T06:08:55;1.47;;;1.37;;
16965;SDS011;8599;47.852;12.070;2023-01-16T06:11:22;1.63;;;1.40;;
16965;SDS011;8599;47.852;12.070;2023-01-16T06:13:48;2.00;;;1.73;;
16965;SDS011;8599;47.852;12.070;2023-01-16T06:16:15;1.73;;;1.63;;
16965;SDS011;8599;47.852;12.070;2023-01-16T06:18:42;3.53;;;2.03;;
16965;SDS011;8599;47.852;12.070;2023-01-16T06:21:10;3.03;;;2.22;;
16965;SDS011;8599;47.852;12.070;2023-01-16T06:23:37;3.67;;;2.27;;
16965;SDS011;8599;47.852;12.070;2023-01-16T06:26:04;1.98;;;1.77;;
16965;SDS011;8599;47.852;12.070;2023-01-16T06:28:34;1.77;;;1.67;;
16965;SDS011;8599;47.852;12.070;2023-01-16T06:31:01;4.03;;;1.43;;
16965;SDS011;8599;47.852;12.070;2023-01-16T06:33:28;1.80;;;1.70;;
16965;SDS011;8599;47.852;12.070;2023-01-16T06:35:55;4.77;;;1.80;;
16965;SDS011;8599;47.852;12.070;2023-01-16T06:38:23;2.20;;;1.50;;
16965;SDS011;8599;47.852;12.070;2023-01-16T06:40:50;1.43;;;1.33;;
16965;SDS011;8599;47.852;12.070;2023-01-16T06:43:21;2.33;;;2.13;;
16965;SDS011;8599;47.852;12.070;2023-01-16T06:45:48;3.10;;;2.27;;
16965;SDS011;8599;47.852;12.070;2023-01-16T06:48:15;2.40;;;2.20;;
16965;SDS011;8599;47.852;12.070;2023-01-16T06:50:41;2.93;;;1.93;;
16965;SDS011;8599;47.852;12.070;2023-01-16T06:53:08;2.63;;;2.07;;
16965;SDS011;8599;47.852;12.070;2023-01-16T06:55:36;4.17;;;2.50;;
16965;SDS011;8599;47.852;12.070;2023-01-16T06:58:04;2.03;;;1.93;;
16965;SDS011;8599;47.852;12.070;2023-01-16T07:00:31;1.73;;;1.63;;
16965;SDS011;8599;47.852;12.070;2023-01-16T07:02:58;2.70;;;2.50;;
16965;SDS011;8599;47.852;12.070;2023-01-16T07:05:26;2.93;;;2.53;;
16965;SDS011;8599;47.852;12.070;2023-01-16T07:07:54;4.73;;;3.10;;
16965;SDS011;8599;47.852;12.070;2023-01-16T07:10:22;3.37;;;2.63;;
16965;SDS011;8599;47.852;12.070;2023-01-16T07:12:51;4.80;;;3.73;;
16965;SDS011;8599;47.852;12.070;2023-01-16T07:15:18;3.53;;;3.23;;
16965;SDS011;8599;47.852;12.070;2023-01-16T07:18:03;2.63;;;1.97;;
16965;SDS011;8599;47.852;12.070;2023-01-16T07:20:49;2.80;;;1.97;;
16965;SDS011;8599;47.852;12.070;2023-01-16T07:23:37;1.70;;;1.60;;
16965;SDS011;8599;47.852;12.070;2023-01-16T07:26:06;2.77;;;2.57;;
16965;SDS011;8599;47.852;12.070;2023-01-16T07:28:36;2.37;;;2.17;;
16965;SDS011;8599;47.852;12.070;2023-01-16T07:31:04;2.20;;;1.93;;
16965;SDS011;8599;47.852;12.070;2023-01-16T07:33:32;3.57;;;1.50;;
16965;SDS011;8599;47.852;12.070;2023-01-16T07:35:59;7.53;;;1.90;;
16965;SDS011;8599;47.852;12.070;2023-01-16T07:38:26;1.50;;;1.40;;
16965;SDS011;8599;47.852;12.070;2023-01-16T07:40:53;1.67;;;1.57;;
16965;SDS011;8599;47.852;12.070;2023-01-16T07:43:19;1.67;;;1.57;;
16965;SDS011;8599;47.852;12.070;2023-01-16T07:45:48;1.77;;;1.67;;
16965;SDS011;8599;47.852;12.070;2023-01-16T07:48:17;2.03;;;1.80;;
16965;SDS011;8599;47.852;12.070;2023-01-16T07:50:48;2.13;;;1.70;;
16965;SDS011;8599;47.852;12.070;2023-01-16T07:53:16;2.00;;;1.80;;
16965;SDS011;8599;47.852;12.070;2023-01-16T07:55:46;1.80;;;1.70;;
16965;SDS011;8599;47.852;12.070;2023-01-16T07:58:13;1.83;;;1.73;;
16965;SDS011;8599;47.852;12.070;2023-01-16T08:00:40;1.70;;;1.60;;
16965;SDS011;8599;47.852;12.070;2023-01-16T08:03:08;1.67;;;1.57;;
16965;SDS011;8599;47.852;12.070;2023-01-16T08:05:35;1.67;;;1.50;;
16965;SDS011;8599;47.852;12.070;2023-01-16T08:08:02;1.60;;;1.50;;
16965;SDS011;8599;47.852;12.070;2023-01-16T08:10:30;1.50;;;1.40;;
16965;SDS011;8599;47.852;12.070;2023-01-16T08:12:56;1.80;;;1.67;;
16965;SDS011;8599;47.852;12.070;2023-01-16T08:15:23;1.33;;;1.23;;
16965;SDS011;8599;47.852;12.070;2023-01-16T08:17:50;1.67;;;1.57;;
16965;SDS011;8599;47.852;12.070;2023-01-16T08:20:18;4.50;;;2.80;;
16965;SDS011;8599;47.852;12.070;2023-01-16T08:22:46;1.50;;;1.30;;
16965;SDS011;8599;47.852;12.070;2023-01-16T08:25:15;1.00;;;1.00;;
16965;SDS011;8599;47.852;12.070;2023-01-16T08:27:43;2.13;;;1.00;;
16965;SDS011;8599;47.852;12.070;2023-01-16T08:30:10;1.10;;;1.10;;
16965;SDS011;8599;47.852;12.070;2023-01-16T08:32:38;1.70;;;1.60;;
16965;SDS011;8599;47.852;12.070;2023-01-16T08:35:05;1.90;;;1.50;;
16965;SDS011;8599;47.852;12.070;2023-01-16T08:37:34;2.57;;;2.20;;
16965;SDS011;8599;47.852;12.070;2023-01-16T08:40:02;2.27;;;1.77;;
16965;SDS011;8599;47.852;12.070;2023-01-16T08:42:29;1.83;;;1.70;;
16965;SDS011;8599;47.852;12.070;2023-01-16T08:45:14;2.20;;;1.60;;
16965;SDS011;8599;47.852;12.070;2023-01-16T08:47:59;3.70;;;2.13;;
16965;SDS011;8599;47.852;12.070;2023-01-16T08:50:44;1.73;;;1.60;;
16965;SDS011;8599;47.852;12.070;2023-01-16T08:53:31;1.53;;;1.43;;
16965;SDS011;8599;47.852;12.070;2023-01-16T08:55:58;2.30;;;1.70;;
16965;SDS011;8599;47.852;12.070;2023-01-16T08:58:25;2.17;;;1.97;;
16965;SDS011;8599;47.852;12.070;2023-01-16T09:00:52;3.70;;;2.50;;
16965;SDS011;8599;47.852;12.070;2023-01-16T09:03:19;2.77;;;2.30;;
16965;SDS011;8599;47.852;12.070;2023-01-16T09:05:46;4.00;;;2.93;;
16965;SDS011;8599;47.852;12.070;2023-01-16T09:08:13;1.43;;;1.33;;
16965;SDS011;8599;47.852;12.070;2023-01-16T09:10:41;2.50;;;1.43;;
16965;SDS011;8599;47.852;12.070;2023-01-16T09:13:28;3.70;;;2.27;;
16965;SDS011;8599;47.852;12.070;2023-01-16T09:16:12;1.67;;;1.57;;
16965;SDS011;8599;47.852;12.070;2023-01-16T09:18:39;2.63;;;1.80;;
16965;SDS011;8599;47.852;12.070;2023-01-16T09:21:06;2.50;;;2.30;;
16965;SDS011;8599;47.852;12.070;2023-01-16T09:23:33;1.73;;;1.60;;
16965;SDS011;8599;47.852;12.070;2023-01-16T09:26:01;1.60;;;1.50;;
16965;SDS011;8599;47.852;12.070;2023-01-16T09:28:28;1.43;;;1.33;;
16965;SDS011;8599;47.852;12.070;2023-01-16T09:30:54;2.80;;;1.80;;
16965;SDS011;8599;47.852;12.070;2023-01-16T09:33:21;1.30;;;1.20;;
16965;SDS011;8599;47.852;12.070;2023-01-16T09:35:48;1.53;;;1.43;;
16965;SDS011;8599;47.852;12.070;2023-01-16T09:38:15;2.67;;;1.50;;
16965;SDS011;8599;47.852;12.070;2023-01-16T09:40:43;1.47;;;1.23;;
16965;SDS011;8599;47.852;12.070;2023-01-16T09:43:19;1.83;;;1.30;;
16965;SDS011;8599;47.852;12.070;2023-01-16T09:46:08;1.53;;;1.43;;
16965;SDS011;8599;47.852;12.070;2023-01-16T09:48:38;2.30;;;1.57;;
16965;SDS011;8599;47.852;12.070;2023-01-16T09:51:13;1.77;;;1.27;;
16965;SDS011;8599;47.852;12.070;2023-01-16T09:53:43;2.47;;;1.97;;
16965;SDS011;8599;47.852;12.070;2023-01-16T09:56:31;3.93;;;1.63;;
16965;SDS011;8599;47.852;12.070;2023-01-16T09:59:22;2.53;;;1.93;;
16965;SDS011;8599;47.852;12.070;2023-01-16T10:01:55;3.13;;;1.87;;
16965;SDS011;8599;47.852;12.070;2023-01-16T10:04:30;3.70;;;1.37;;
16965;SDS011;8599;47.852;12.070;2023-01-16T10:07:02;5.30;;;2.40;;
16965;SDS011;8599;47.852;12.070;2023-01-16T10:09:46;3.17;;;1.30;;
16965;SDS011;8599;47.852;12.070;2023-01-16T10:12:18;1.87;;;1.23;;
16965;SDS011;8599;47.852;12.070;2023-01-16T10:15:01;1.57;;;1.47;;
16965;SDS011;8599;47.852;12.070;2023-01-16T10:17:40;1.77;;;1.40;;
16965;SDS011;8599;47.852;12.070;2023-01-16T10:20:27;2.80;;;1.47;;
16965;SDS011;8599;47.852;12.070;2023-01-16T10:23:21;2.73;;;1.80;;
16965;SDS011;8599;47.852;12.070;2023-01-16T10:26:00;1.37;;;1.20;;
16965;SDS011;8599;47.852;12.070;2023-01-16T10:28:36;1.30;;;1.00;;
16965;SDS011;8599;47.852;12.070;2023-01-16T10:31:15;1.30;;;1.20;;
16965;SDS011;8599;47.852;12.070;2023-01-16T10:33:46;0.83;;;0.83;;
16965;SDS011;8599;47.852;12.070;2023-01-16T10:36:18;1.93;;;1.17;;
16965;SDS011;8599;47.852;12.070;2023-01-16T10:38:47;1.40;;;1.10;;
16965;SDS011;8599;47.852;12.070;2023-01-16T10:41:21;1.50;;;1.40;;
16965;SDS011;8599;47.852;12.070;2023-01-16T10:44:11;1.00;;;1.00;;
16965;SDS011;8599;47.852;12.070;2023-01-16T10:47:14;0.60;;;0.60;;
16965;SDS011;8599;47.852;12.070;2023-01-16T10:49:59;0.80;;;0.80;;
16965;SDS011;8599;47.852;12.070;2023-01-16T10:52:26;1.17;;;0.97;;
16965;SDS011;8599;47.852;12.070;2023-01-16T10:54:54;1.70;;;1.00;;
16965;SDS011;8599;47.852;12.070;2023-01-16T10:57:22;0.60;;;0.60;;
16965;SDS011;8599;47.852;12.070;2023-01-16T10:59:50;0.67;;;0.67;;
16965;SDS011;8599;47.852;12.070;2023-01-16T11:02:24;1.00;;;0.90;;
16965;SDS011;8599;47.852;12.070;2023-01-16T11:04:55;1.77;;;1.20;;
16965;SDS011;8599;47.852;12.070;2023-01-16T11:07:22;2.83;;;1.13;;
16965;SDS011;8599;47.852;12.070;2023-01-16T11:09:54;1.30;;;1.20;;
16965;SDS011;8599;47.852;12.070;2023-01-16T11:12:22;1.70;;;1.00;;
16965;SDS011;8599;47.852;12.070;2023-01-16T11:15:15;1.70;;;1.30;;
16965;SDS011;8599;47.852;12.070;2023-01-16T11:18:07;1.20;;;1.10;;
16965;SDS011;8599;47.852;12.070;2023-01-16T11:20:54;0.83;;;0.83;;
16965;SDS011;8599;47.852;12.070;2023-01-16T11:23:22;1.03;;;0.90;;
16965;SDS011;8599;47.852;12.070;2023-01-16T11:25:53;1.30;;;1.20;;
16965;SDS011;8599;47.852;12.070;2023-01-16T11:28:23;3.17;;;1.13;;
16965;SDS011;8599;47.852;12.070;2023-01-16T11:30:52;0.80;;;0.80;;
16965;SDS011;8599;47.852;12.070;2023-01-16T11:33:24;1.53;;;1.30;;
16965;SDS011;8599;47.852;12.070;2023-01-16T11:35:54;0.70;;;0.70;;
16965;SDS011;8599;47.852;12.070;2023-01-16T11:38:24;6.33;;;0.87;;
16965;SDS011;8599;47.852;12.070;2023-01-16T11:40:54;1.07;;;0.97;;
16965;SDS011;8599;47.852;12.070;2023-01-16T11:43:23;1.20;;;0.97;;
16965;SDS011;8599;47.852;12.070;2023-01-16T11:46:20;1.17;;;1.07;;
16965;SDS011;8599;47.852;12.070;2023-01-16T11:48:58;0.90;;;0.87;;
16965;SDS011;8599;47.852;12.070;2023-01-16T11:51:27;2.23;;;0.70;;
16965;SDS011;8599;47.852;12.070;2023-01-16T11:53:57;1.10;;;1.10;;
16965;SDS011;8599;47.852;12.070;2023-01-16T11:56:35;1.50;;;1.13;;
16965;SDS011;8599;47.852;12.070;2023-01-16T11:59:25;1.33;;;1.20;;
16965;SDS011;8599;47.852;12.070;2023-01-16T12:02:03;1.17;;;0.87;;
16965;SDS011;8599;47.852;12.070;2023-01-16T12:04:52;0.87;;;0.87;;
16965;SDS011;8599;47.852;12.070;2023-01-16T12:07:45;0.73;;;0.73;;
16965;SDS011;8599;47.852;12.070;2023-01-16T12:10:28;0.70;;;0.70;;
16965;SDS011;8599;47.852;12.070;2023-01-16T12:13:04;0.70;;;0.70;;
16965;SDS011;8599;47.852;12.070;2023-01-16T12:15:56;1.10;;;1.00;;
16965;SDS011;8599;47.852;12.070;2023-01-16T12:18:34;1.07;;;0.93;;
16965;SDS011;8599;47.852;12.070;2023-01-16T12:21:14;0.80;;;0.80;;
16965;SDS011;8599;47.852;12.070;2023-01-16T12:24:05;0.70;;;0.63;;
16965;SDS011;8599;47.852;12.070;2023-01-16T12:26:47;0.80;;;0.80;;
16965;SDS011;8599;47.852;12.070;2023-01-16T12:29:24;1.17;;;0.70;;
16965;SDS011;8599;47.852;12.070;2023-01-16T12:32:02;0.90;;;0.90;;
16965;SDS011;8599;47.852;12.070;2023-01-16T12:34:43;1.63;;;0.93;;
16965;SDS011;8599;47.852;12.070;2023-01-16T12:37:26;1.93;;;0.90;;
16965;SDS011;8599;47.852;12.070;2023-01-16T12:40:12;2.00;;;1.03;;
16965;SDS011;8599;47.852;12.070;2023-01-16T12:42:53;0.93;;;0.70;;
16965;SDS011;8599;47.852;12.070;2023-01-16T12:45:46;0.80;;;0.80;;
16965;SDS011;8599;47.852;12.070;2023-01-16T12:48:19;0.50;;;0.50;;
16965;SDS011;8599;47.852;12.070;2023-01-16T12:51:04;0.57;;;0.53;;
16965;SDS011;8599;47.852;12.070;2023-01-16T12:53:54;0.73;;;0.63;;
16965;SDS011;8599;47.852;12.070;2023-01-16T12:56:37;2.60;;;0.80;;
16965;SDS011;8599;47.852;12.070;2023-01-16T12:59:10;11.03;;;1.00;;
16965;SDS011;8599;47.852;12.070;2023-01-16T13:01:42;1.37;;;1.10;;
16965;SDS011;8599;47.852;12.070;2023-01-16T13:04:13;0.93;;;0.90;;
16965;SDS011;8599;47.852;12.070;2023-01-16T13:06:46;0.80;;;0.80;;
16965;SDS011;8599;47.852;12.070;2023-01-16T13:09:17;0.83;;;0.80;;
16965;SDS011;8599;47.852;12.070;2023-01-16T13:11:57;0.80;;;0.80;;
16965;SDS011;8599;47.852;12.070;2023-01-16T13:14:47;2.67;;;1.20;;
16965;SDS011;8599;47.852;12.070;2023-01-16T13:17:21;2.47;;;2.10;;
16965;SDS011;8599;47.852;12.070;2023-01-16T13:19:52;4.20;;;2.37;;
16965;SDS011;8599;47.852;12.070;2023-01-16T13:22:21;5.90;;;3.50;;
16965;SDS011;8599;47.852;12.070;2023-01-16T13:24:55;6.17;;;3.50;;
16965;SDS011;8599;47.852;12.070;2023-01-16T13:27:31;3.07;;;2.60;;
16965;SDS011;8599;47.852;12.070;2023-01-16T13:30:05;2.53;;;1.80;;
16965;SDS011;8599;47.852;12.070;2023-01-16T13:32:38;1.30;;;1.20;;
16965;SDS011;8599;47.852;12.070;2023-01-16T13:35:10;5.47;;;1.90;;
16965;SDS011;8599;47.852;12.070;2023-01-16T13:41:00;2.17;;;1.03;;
16965;SDS011;8599;47.852;12.070;2023-01-16T13:43:45;1.33;;;1.23;;
16965;SDS011;8599;47.852;12.070;2023-01-16T13:46:34;1.00;;;1.00;;
16965;SDS011;8599;47.852;12.070;2023-01-16T13:49:02;1.10;;;1.10;;
16965;SDS011;8599;47.852;12.070;2023-01-16T13:51:30;1.47;;;1.37;;
16965;SDS011;8599;47.852;12.070;2023-01-16T13:54:07;1.93;;;1.37;;
16965;SDS011;8599;47.852;12.070;2023-01-16T13:56:41;1.63;;;1.53;;
16965;SDS011;8599;47.852;12.070;2023-01-16T13:59:12;1.70;;;1.60;;
16965;SDS011;8599;47.852;12.070;2023-01-16T14:01:53;2.00;;;1.80;;
16965;SDS011;8599;47.852;12.070;2023-01-16T14:04:26;1.90;;;1.60;;
16965;SDS011;8599;47.852;12.070;2023-01-16T14:06:57;1.90;;;1.80;;
16965;SDS011;8599;47.852;12.070;2023-01-16T14:12:34;1.63;;;1.53;;
16965;SDS011;8599;47.852;12.070;2023-01-16T14:15:13;1.83;;;1.73;;
16965;SDS011;8599;47.852;12.070;2023-01-16T14:18:00;1.70;;;1.60;;
16965;SDS011;8599;47.852;12.070;2023-01-16T14:20:43;1.40;;;1.03;;
16965;SDS011;8599;47.852;12.070;2023-01-16T14:23:16;1.27;;;1.17;;
16965;SDS011;8599;47.852;12.070;2023-01-16T14:26:04;1.90;;;1.57;;
16965;SDS011;8599;47.852;12.070;2023-01-16T14:28:34;1.90;;;1.77;;
16965;SDS011;8599;47.852;12.070;2023-01-16T14:31:04;2.13;;;1.90;;
16965;SDS011;8599;47.852;12.070;2023-01-16T14:33:31;1.53;;;1.43;;
16965;SDS011;8599;47.852;12.070;2023-01-16T14:35:58;3.87;;;2.00;;
16965;SDS011;8599;47.852;12.070;2023-01-16T14:38:27;2.43;;;1.83;;
16965;SDS011;8599;47.852;12.070;2023-01-16T14:40:58;2.67;;;2.03;;
16965;SDS011;8599;47.852;12.070;2023-01-16T14:46:49;2.93;;;1.80;;
16965;SDS011;8599;47.852;12.070;2023-01-16T14:49:57;3.20;;;2.23;;
16965;SDS011;8599;47.852;12.070;2023-01-16T14:52:48;1.77;;;1.67;;
16965;SDS011;8599;47.852;12.070;2023-01-16T14:55:47;6.17;;;2.37;;
16965;SDS011;8599;47.852;12.070;2023-01-16T14:58:20;6.20;;;2.30;;
16965;SDS011;8599;47.852;12.070;2023-01-16T15:00:52;3.67;;;2.53;;
16965;SDS011;8599;47.852;12.070;2023-01-16T15:03:44;5.23;;;2.40;;
16965;SDS011;8599;47.852;12.070;2023-01-16T15:06:11;2.40;;;2.20;;
16965;SDS011;8599;47.852;12.070;2023-01-16T15:08:40;7.50;;;2.37;;
16965;SDS011;8599;47.852;12.070;2023-01-16T15:11:10;3.80;;;2.80;;
16965;SDS011;8599;47.852;12.070;2023-01-16T15:14:09;6.23;;;4.67;;
16965;SDS011;8599;47.852;12.070;2023-01-16T15:17:01;6.50;;;4.87;;
16965;SDS011;8599;47.852;12.070;2023-01-16T15:23:05;11.77;;;4.97;;
16965;SDS011;8599;47.852;12.070;2023-01-16T15:25:50;9.83;;;5.50;;
16965;SDS011;8599;47.852;12.070;2023-01-16T15:28:42;14.93;;;5.97;;
16965;SDS011;8599;47.852;12.070;2023-01-16T15:31:24;10.93;;;5.10;;
16965;SDS011;8599;47.852;12.070;2023-01-16T15:33:58;6.17;;;3.83;;
16965;SDS011;8599;47.852;12.070;2023-01-16T15:36:32;6.77;;;3.47;;